<?xml version="1.0" encoding="utf-8"?>
<gpx xmlns:xsi="http://www.w3.org/2001/XMLSchema-instance" xmlns:xsd="http://www.w3.org/2001/XMLSchema" version="1.1" creator="Shapelink.com" xmlns="http://www.topografix.com/GPX/1/1" xmlns:gpxtpx="http://www.garmin.com/xmlschemas/TrackPointExtension/v1">
  <metadata>
    <name>Løping 4.05 km, 2012-05-17</name>
    <desc></desc>
    <author><name>Mikael Blom</name></author> 
    <time>2012-05-17T15:22:42Z</time>
  </metadata>
  <trk>
    <name>Løping 4.05 km, 2012-05-17</name>
    <trkseg>
      <trkpt lat="59.9926328" lon="17.7405079">
        <ele>69.8329</ele>
        <time>2012-05-17T15:22:42Z</time>
      </trkpt>
      <trkpt lat="59.9926063" lon="17.7402969">
        <ele>65.0264</ele>
        <time>2012-05-17T15:22:47Z</time>
      </trkpt>
      <trkpt lat="59.9925582" lon="17.7400294">
        <ele>63.5844</ele>
        <time>2012-05-17T15:22:52Z</time>
      </trkpt>
      <trkpt lat="59.9925321" lon="17.7397792">
        <ele>63.5844</ele>
        <time>2012-05-17T15:22:57Z</time>
      </trkpt>
      <trkpt lat="59.9924927" lon="17.7395966">
        <ele>63.1036</ele>
        <time>2012-05-17T15:23:01Z</time>
      </trkpt>
      <trkpt lat="59.9924375" lon="17.7393703">
        <ele>58.7777</ele>
        <time>2012-05-17T15:23:06Z</time>
      </trkpt>
      <trkpt lat="59.9924297" lon="17.7393246">
        <ele>59.2584</ele>
        <time>2012-05-17T15:23:07Z</time>
      </trkpt>
      <trkpt lat="59.9924344" lon="17.7391735">
        <ele>58.7777</ele>
        <time>2012-05-17T15:23:10Z</time>
      </trkpt>
      <trkpt lat="59.9924376" lon="17.7389674">
        <ele>58.7777</ele>
        <time>2012-05-17T15:23:14Z</time>
      </trkpt>
      <trkpt lat="59.9924344" lon="17.7389141">
        <ele>59.2584</ele>
        <time>2012-05-17T15:23:15Z</time>
      </trkpt>
      <trkpt lat="59.9924277" lon="17.7386348">
        <ele>60.7003</ele>
        <time>2012-05-17T15:23:20Z</time>
      </trkpt>
      <trkpt lat="59.9923884" lon="17.7383903">
        <ele>58.2971</ele>
        <time>2012-05-17T15:23:26Z</time>
      </trkpt>
      <trkpt lat="59.9923883" lon="17.7382117">
        <ele>58.7777</ele>
        <time>2012-05-17T15:23:30Z</time>
      </trkpt>
      <trkpt lat="59.9923594" lon="17.7380306">
        <ele>59.7391</ele>
        <time>2012-05-17T15:23:34Z</time>
      </trkpt>
      <trkpt lat="59.9923394" lon="17.7379441">
        <ele>58.7777</ele>
        <time>2012-05-17T15:23:36Z</time>
      </trkpt>
      <trkpt lat="59.9922899" lon="17.7376784">
        <ele>56.3745</ele>
        <time>2012-05-17T15:23:42Z</time>
      </trkpt>
      <trkpt lat="59.9922148" lon="17.7375796">
        <ele>58.2971</ele>
        <time>2012-05-17T15:23:46Z</time>
      </trkpt>
      <trkpt lat="59.9921128" lon="17.7376101">
        <ele>67.9103</ele>
        <time>2012-05-17T15:23:51Z</time>
      </trkpt>
      <trkpt lat="59.9918628" lon="17.7377669">
        <ele>72.2362</ele>
        <time>2012-05-17T15:23:56Z</time>
      </trkpt>
      <trkpt lat="59.9917102" lon="17.7378526">
        <ele>79.446</ele>
        <time>2012-05-17T15:23:59Z</time>
      </trkpt>
      <trkpt lat="59.9916779" lon="17.73785">
        <ele>80.4075</ele>
        <time>2012-05-17T15:24:02Z</time>
      </trkpt>
      <trkpt lat="59.9916155" lon="17.7378303">
        <ele>79.9266</ele>
        <time>2012-05-17T15:24:07Z</time>
      </trkpt>
      <trkpt lat="59.9916064" lon="17.7378301">
        <ele>83.2914</ele>
        <time>2012-05-17T15:24:08Z</time>
      </trkpt>
      <trkpt lat="59.9915796" lon="17.7378085">
        <ele>84.7334</ele>
        <time>2012-05-17T15:24:10Z</time>
      </trkpt>
      <trkpt lat="59.991446" lon="17.7377966">
        <ele>86.1753</ele>
        <time>2012-05-17T15:24:16Z</time>
      </trkpt>
      <trkpt lat="59.9913843" lon="17.7378013">
        <ele>93.8658</ele>
        <time>2012-05-17T15:24:20Z</time>
      </trkpt>
      <trkpt lat="59.9912631" lon="17.7378215">
        <ele>91.4625</ele>
        <time>2012-05-17T15:24:25Z</time>
      </trkpt>
      <trkpt lat="59.9910837" lon="17.7378991">
        <ele>97.7112</ele>
        <time>2012-05-17T15:24:31Z</time>
      </trkpt>
      <trkpt lat="59.9910003" lon="17.7379438">
        <ele>106.363</ele>
        <time>2012-05-17T15:24:36Z</time>
      </trkpt>
      <trkpt lat="59.9909372" lon="17.7379809">
        <ele>107.324</ele>
        <time>2012-05-17T15:24:41Z</time>
      </trkpt>
      <trkpt lat="59.9907649" lon="17.7380782">
        <ele>106.844</ele>
        <time>2012-05-17T15:24:49Z</time>
      </trkpt>
      <trkpt lat="59.9906452" lon="17.7381614">
        <ele>114.054</ele>
        <time>2012-05-17T15:24:54Z</time>
      </trkpt>
      <trkpt lat="59.9906372" lon="17.7381944">
        <ele>115.976</ele>
        <time>2012-05-17T15:24:58Z</time>
      </trkpt>
      <trkpt lat="59.9906026" lon="17.7382182">
        <ele>116.457</ele>
        <time>2012-05-17T15:24:59Z</time>
      </trkpt>
      <trkpt lat="59.9904471" lon="17.7382686">
        <ele>111.65</ele>
        <time>2012-05-17T15:25:03Z</time>
      </trkpt>
      <trkpt lat="59.9904291" lon="17.7382762">
        <ele>112.612</ele>
        <time>2012-05-17T15:25:04Z</time>
      </trkpt>
      <trkpt lat="59.9902991" lon="17.7383271">
        <ele>103.479</ele>
        <time>2012-05-17T15:25:09Z</time>
      </trkpt>
      <trkpt lat="59.9902038" lon="17.7383598">
        <ele>101.556</ele>
        <time>2012-05-17T15:25:14Z</time>
      </trkpt>
      <trkpt lat="59.9901637" lon="17.738364">
        <ele>105.882</ele>
        <time>2012-05-17T15:25:17Z</time>
      </trkpt>
      <trkpt lat="59.9900603" lon="17.7384109">
        <ele>104.921</ele>
        <time>2012-05-17T15:25:20Z</time>
      </trkpt>
      <trkpt lat="59.9899188" lon="17.7384702">
        <ele>104.921</ele>
        <time>2012-05-17T15:25:26Z</time>
      </trkpt>
      <trkpt lat="59.9898327" lon="17.7384954">
        <ele>107.324</ele>
        <time>2012-05-17T15:25:31Z</time>
      </trkpt>
      <trkpt lat="59.9896753" lon="17.7385536">
        <ele>105.882</ele>
        <time>2012-05-17T15:25:38Z</time>
      </trkpt>
      <trkpt lat="59.9894996" lon="17.7386263">
        <ele>102.037</ele>
        <time>2012-05-17T15:25:44Z</time>
      </trkpt>
      <trkpt lat="59.9893862" lon="17.7386851">
        <ele>99.6338</ele>
        <time>2012-05-17T15:25:49Z</time>
      </trkpt>
      <trkpt lat="59.9892813" lon="17.7387084">
        <ele>98.1919</ele>
        <time>2012-05-17T15:25:54Z</time>
      </trkpt>
      <trkpt lat="59.9891823" lon="17.7387401">
        <ele>94.3466</ele>
        <time>2012-05-17T15:25:59Z</time>
      </trkpt>
      <trkpt lat="59.9890448" lon="17.7387985">
        <ele>89.0593</ele>
        <time>2012-05-17T15:26:03Z</time>
      </trkpt>
      <trkpt lat="59.9889819" lon="17.7388591">
        <ele>89.5399</ele>
        <time>2012-05-17T15:26:07Z</time>
      </trkpt>
      <trkpt lat="59.9889721" lon="17.7388674">
        <ele>90.0206</ele>
        <time>2012-05-17T15:26:08Z</time>
      </trkpt>
      <trkpt lat="59.9888086" lon="17.7390161">
        <ele>87.6172</ele>
        <time>2012-05-17T15:26:13Z</time>
      </trkpt>
      <trkpt lat="59.9886434" lon="17.7391471">
        <ele>98.6725</ele>
        <time>2012-05-17T15:26:17Z</time>
      </trkpt>
      <trkpt lat="59.9885426" lon="17.7392207">
        <ele>108.766</ele>
        <time>2012-05-17T15:26:22Z</time>
      </trkpt>
      <trkpt lat="59.9884704" lon="17.7392713">
        <ele>112.131</ele>
        <time>2012-05-17T15:26:26Z</time>
      </trkpt>
      <trkpt lat="59.9884218" lon="17.7392853">
        <ele>109.247</ele>
        <time>2012-05-17T15:26:30Z</time>
      </trkpt>
      <trkpt lat="59.988375" lon="17.7393207">
        <ele>110.689</ele>
        <time>2012-05-17T15:26:36Z</time>
      </trkpt>
      <trkpt lat="59.9883377" lon="17.7393011">
        <ele>111.65</ele>
        <time>2012-05-17T15:26:39Z</time>
      </trkpt>
      <trkpt lat="59.9882676" lon="17.7393248">
        <ele>109.247</ele>
        <time>2012-05-17T15:26:43Z</time>
      </trkpt>
      <trkpt lat="59.9881987" lon="17.7393652">
        <ele>110.689</ele>
        <time>2012-05-17T15:26:47Z</time>
      </trkpt>
      <trkpt lat="59.9880192" lon="17.739418">
        <ele>98.6725</ele>
        <time>2012-05-17T15:26:52Z</time>
      </trkpt>
      <trkpt lat="59.987783" lon="17.7395014">
        <ele>88.5787</ele>
        <time>2012-05-17T15:26:57Z</time>
      </trkpt>
      <trkpt lat="59.9876094" lon="17.7395429">
        <ele>77.5234</ele>
        <time>2012-05-17T15:27:03Z</time>
      </trkpt>
      <trkpt lat="59.9875056" lon="17.7395691">
        <ele>76.0814</ele>
        <time>2012-05-17T15:27:08Z</time>
      </trkpt>
      <trkpt lat="59.987354" lon="17.7396019">
        <ele>74.6395</ele>
        <time>2012-05-17T15:27:14Z</time>
      </trkpt>
      <trkpt lat="59.9873002" lon="17.7396059">
        <ele>76.0814</ele>
        <time>2012-05-17T15:27:16Z</time>
      </trkpt>
      <trkpt lat="59.987117" lon="17.739649">
        <ele>84.7334</ele>
        <time>2012-05-17T15:27:22Z</time>
      </trkpt>
      <trkpt lat="59.9869684" lon="17.7395973">
        <ele>81.3688</ele>
        <time>2012-05-17T15:27:28Z</time>
      </trkpt>
      <trkpt lat="59.9868886" lon="17.7395064">
        <ele>73.6782</ele>
        <time>2012-05-17T15:27:32Z</time>
      </trkpt>
      <trkpt lat="59.9868024" lon="17.7393771">
        <ele>69.3523</ele>
        <time>2012-05-17T15:27:37Z</time>
      </trkpt>
      <trkpt lat="59.9866839" lon="17.7392303">
        <ele>64.0651</ele>
        <time>2012-05-17T15:27:43Z</time>
      </trkpt>
      <trkpt lat="59.986605" lon="17.7391311">
        <ele>65.9877</ele>
        <time>2012-05-17T15:27:47Z</time>
      </trkpt>
      <trkpt lat="59.9865129" lon="17.739055">
        <ele>65.9877</ele>
        <time>2012-05-17T15:27:51Z</time>
      </trkpt>
      <trkpt lat="59.9864315" lon="17.7389532">
        <ele>64.0651</ele>
        <time>2012-05-17T15:27:55Z</time>
      </trkpt>
      <trkpt lat="59.9862737" lon="17.7388585">
        <ele>65.0264</ele>
        <time>2012-05-17T15:28:01Z</time>
      </trkpt>
      <trkpt lat="59.986106" lon="17.7387653">
        <ele>67.4297</ele>
        <time>2012-05-17T15:28:07Z</time>
      </trkpt>
      <trkpt lat="59.9859889" lon="17.7386663">
        <ele>67.4297</ele>
        <time>2012-05-17T15:28:12Z</time>
      </trkpt>
      <trkpt lat="59.9858747" lon="17.7386493">
        <ele>69.3523</ele>
        <time>2012-05-17T15:28:17Z</time>
      </trkpt>
      <trkpt lat="59.985852" lon="17.7386401">
        <ele>69.3523</ele>
        <time>2012-05-17T15:28:18Z</time>
      </trkpt>
      <trkpt lat="59.9857448" lon="17.7385565">
        <ele>69.8329</ele>
        <time>2012-05-17T15:28:23Z</time>
      </trkpt>
      <trkpt lat="59.9856795" lon="17.738498">
        <ele>68.8716</ele>
        <time>2012-05-17T15:28:26Z</time>
      </trkpt>
      <trkpt lat="59.9855586" lon="17.7383917">
        <ele>65.9877</ele>
        <time>2012-05-17T15:28:31Z</time>
      </trkpt>
      <trkpt lat="59.9854723" lon="17.7382069">
        <ele>61.6617</ele>
        <time>2012-05-17T15:28:36Z</time>
      </trkpt>
      <trkpt lat="59.9854744" lon="17.7379864">
        <ele>54.4518</ele>
        <time>2012-05-17T15:28:40Z</time>
      </trkpt>
      <trkpt lat="59.9854956" lon="17.7377069">
        <ele>47.7225</ele>
        <time>2012-05-17T15:28:45Z</time>
      </trkpt>
      <trkpt lat="59.9855306" lon="17.7374449">
        <ele>42.4354</ele>
        <time>2012-05-17T15:28:50Z</time>
      </trkpt>
      <trkpt lat="59.9856042" lon="17.7372878">
        <ele>41.9547</ele>
        <time>2012-05-17T15:28:54Z</time>
      </trkpt>
      <trkpt lat="59.985695" lon="17.7371179">
        <ele>41.9547</ele>
        <time>2012-05-17T15:28:59Z</time>
      </trkpt>
      <trkpt lat="59.9858437" lon="17.7369259">
        <ele>42.4354</ele>
        <time>2012-05-17T15:29:06Z</time>
      </trkpt>
      <trkpt lat="59.9859675" lon="17.736684">
        <ele>42.4354</ele>
        <time>2012-05-17T15:29:13Z</time>
      </trkpt>
      <trkpt lat="59.9861141" lon="17.7364957">
        <ele>41.474</ele>
        <time>2012-05-17T15:29:20Z</time>
      </trkpt>
      <trkpt lat="59.9862146" lon="17.7363161">
        <ele>39.0707</ele>
        <time>2012-05-17T15:29:26Z</time>
      </trkpt>
      <trkpt lat="59.9863518" lon="17.7361235">
        <ele>38.5901</ele>
        <time>2012-05-17T15:29:33Z</time>
      </trkpt>
      <trkpt lat="59.9864323" lon="17.7359624">
        <ele>38.1094</ele>
        <time>2012-05-17T15:29:38Z</time>
      </trkpt>
      <trkpt lat="59.9864855" lon="17.7356924">
        <ele>37.6287</ele>
        <time>2012-05-17T15:29:44Z</time>
      </trkpt>
      <trkpt lat="59.9865322" lon="17.7353397">
        <ele>37.6287</ele>
        <time>2012-05-17T15:29:51Z</time>
      </trkpt>
      <trkpt lat="59.9865787" lon="17.7350559">
        <ele>36.6675</ele>
        <time>2012-05-17T15:29:57Z</time>
      </trkpt>
      <trkpt lat="59.9866029" lon="17.7347974">
        <ele>39.5513</ele>
        <time>2012-05-17T15:30:02Z</time>
      </trkpt>
      <trkpt lat="59.9866755" lon="17.7345482">
        <ele>41.474</ele>
        <time>2012-05-17T15:30:08Z</time>
      </trkpt>
      <trkpt lat="59.9867475" lon="17.7342959">
        <ele>41.9547</ele>
        <time>2012-05-17T15:30:13Z</time>
      </trkpt>
      <trkpt lat="59.9868004" lon="17.7340704">
        <ele>41.9547</ele>
        <time>2012-05-17T15:30:17Z</time>
      </trkpt>
      <trkpt lat="59.9868958" lon="17.7338146">
        <ele>43.8773</ele>
        <time>2012-05-17T15:30:23Z</time>
      </trkpt>
      <trkpt lat="59.9869627" lon="17.733582">
        <ele>43.3966</ele>
        <time>2012-05-17T15:30:28Z</time>
      </trkpt>
      <trkpt lat="59.9870078" lon="17.733378">
        <ele>43.8773</ele>
        <time>2012-05-17T15:30:32Z</time>
      </trkpt>
      <trkpt lat="59.9870743" lon="17.7331595">
        <ele>44.8386</ele>
        <time>2012-05-17T15:30:37Z</time>
      </trkpt>
      <trkpt lat="59.9870963" lon="17.7330185">
        <ele>44.8386</ele>
        <time>2012-05-17T15:30:40Z</time>
      </trkpt>
      <trkpt lat="59.9871101" lon="17.7326922">
        <ele>42.916</ele>
        <time>2012-05-17T15:30:46Z</time>
      </trkpt>
      <trkpt lat="59.9871741" lon="17.7324974">
        <ele>40.9934</ele>
        <time>2012-05-17T15:30:51Z</time>
      </trkpt>
      <trkpt lat="59.9872439" lon="17.7322862">
        <ele>39.5513</ele>
        <time>2012-05-17T15:30:56Z</time>
      </trkpt>
      <trkpt lat="59.9872771" lon="17.7320958">
        <ele>38.1094</ele>
        <time>2012-05-17T15:31:00Z</time>
      </trkpt>
      <trkpt lat="59.9873069" lon="17.7318673">
        <ele>39.0707</ele>
        <time>2012-05-17T15:31:05Z</time>
      </trkpt>
      <trkpt lat="59.987439" lon="17.7317083">
        <ele>40.9934</ele>
        <time>2012-05-17T15:31:11Z</time>
      </trkpt>
      <trkpt lat="59.987541" lon="17.7316142">
        <ele>41.9547</ele>
        <time>2012-05-17T15:31:15Z</time>
      </trkpt>
      <trkpt lat="59.987613" lon="17.7315143">
        <ele>41.9547</ele>
        <time>2012-05-17T15:31:18Z</time>
      </trkpt>
      <trkpt lat="59.9877107" lon="17.7313169">
        <ele>38.5901</ele>
        <time>2012-05-17T15:31:24Z</time>
      </trkpt>
      <trkpt lat="59.9877214" lon="17.7312747">
        <ele>38.1094</ele>
        <time>2012-05-17T15:31:25Z</time>
      </trkpt>
      <trkpt lat="59.9878562" lon="17.7310713">
        <ele>36.6675</ele>
        <time>2012-05-17T15:31:32Z</time>
      </trkpt>
      <trkpt lat="59.9879619" lon="17.7308495">
        <ele>35.2255</ele>
        <time>2012-05-17T15:31:38Z</time>
      </trkpt>
      <trkpt lat="59.9880366" lon="17.7306475">
        <ele>34.2642</ele>
        <time>2012-05-17T15:31:43Z</time>
      </trkpt>
      <trkpt lat="59.9881048" lon="17.7304358">
        <ele>34.7449</ele>
        <time>2012-05-17T15:31:48Z</time>
      </trkpt>
      <trkpt lat="59.9881906" lon="17.7301767">
        <ele>36.6675</ele>
        <time>2012-05-17T15:31:54Z</time>
      </trkpt>
      <trkpt lat="59.9882753" lon="17.7300284">
        <ele>37.1481</ele>
        <time>2012-05-17T15:31:58Z</time>
      </trkpt>
      <trkpt lat="59.9883778" lon="17.7299535">
        <ele>36.6675</ele>
        <time>2012-05-17T15:32:02Z</time>
      </trkpt>
      <trkpt lat="59.988454" lon="17.7298969">
        <ele>36.1868</ele>
        <time>2012-05-17T15:32:05Z</time>
      </trkpt>
      <trkpt lat="59.9885729" lon="17.7297932">
        <ele>38.1094</ele>
        <time>2012-05-17T15:32:10Z</time>
      </trkpt>
      <trkpt lat="59.9886944" lon="17.7296955">
        <ele>39.0707</ele>
        <time>2012-05-17T15:32:15Z</time>
      </trkpt>
      <trkpt lat="59.988799" lon="17.7295616">
        <ele>40.0321</ele>
        <time>2012-05-17T15:32:20Z</time>
      </trkpt>
      <trkpt lat="59.9889264" lon="17.7294267">
        <ele>39.0707</ele>
        <time>2012-05-17T15:32:25Z</time>
      </trkpt>
      <trkpt lat="59.9890288" lon="17.7293702">
        <ele>36.6675</ele>
        <time>2012-05-17T15:32:29Z</time>
      </trkpt>
      <trkpt lat="59.9890937" lon="17.7293066">
        <ele>34.7449</ele>
        <time>2012-05-17T15:32:32Z</time>
      </trkpt>
      <trkpt lat="59.9892137" lon="17.7292173">
        <ele>33.3029</ele>
        <time>2012-05-17T15:32:37Z</time>
      </trkpt>
      <trkpt lat="59.9892688" lon="17.7291296">
        <ele>32.8223</ele>
        <time>2012-05-17T15:32:40Z</time>
      </trkpt>
      <trkpt lat="59.9893854" lon="17.7289631">
        <ele>33.3029</ele>
        <time>2012-05-17T15:32:46Z</time>
      </trkpt>
      <trkpt lat="59.9894888" lon="17.7287751">
        <ele>34.2642</ele>
        <time>2012-05-17T15:32:51Z</time>
      </trkpt>
      <trkpt lat="59.9895324" lon="17.7286698">
        <ele>35.2255</ele>
        <time>2012-05-17T15:32:54Z</time>
      </trkpt>
      <trkpt lat="59.9895365" lon="17.7284165">
        <ele>35.2255</ele>
        <time>2012-05-17T15:32:58Z</time>
      </trkpt>
      <trkpt lat="59.9895414" lon="17.7281959">
        <ele>35.2255</ele>
        <time>2012-05-17T15:33:02Z</time>
      </trkpt>
      <trkpt lat="59.9895442" lon="17.7278321">
        <ele>35.2255</ele>
        <time>2012-05-17T15:33:08Z</time>
      </trkpt>
      <trkpt lat="59.9895423" lon="17.7275948">
        <ele>35.2255</ele>
        <time>2012-05-17T15:33:12Z</time>
      </trkpt>
      <trkpt lat="59.9895273" lon="17.7274865">
        <ele>34.7449</ele>
        <time>2012-05-17T15:33:14Z</time>
      </trkpt>
      <trkpt lat="59.9895289" lon="17.7272576">
        <ele>34.7449</ele>
        <time>2012-05-17T15:33:18Z</time>
      </trkpt>
      <trkpt lat="59.9895552" lon="17.7271204">
        <ele>34.2642</ele>
        <time>2012-05-17T15:33:21Z</time>
      </trkpt>
      <trkpt lat="59.9895579" lon="17.7270643">
        <ele>33.7834</ele>
        <time>2012-05-17T15:33:22Z</time>
      </trkpt>
      <trkpt lat="59.9895796" lon="17.7267771">
        <ele>32.8223</ele>
        <time>2012-05-17T15:33:28Z</time>
      </trkpt>
      <trkpt lat="59.9896027" lon="17.7265326">
        <ele>31.3801</ele>
        <time>2012-05-17T15:33:33Z</time>
      </trkpt>
      <trkpt lat="59.9896028" lon="17.7265018">
        <ele>31.3801</ele>
        <time>2012-05-17T15:33:34Z</time>
      </trkpt>
      <trkpt lat="59.9894753" lon="17.7264958">
        <ele>29.4575</ele>
        <time>2012-05-17T15:33:38Z</time>
      </trkpt>
      <trkpt lat="59.9893132" lon="17.7265453">
        <ele>27.0543</ele>
        <time>2012-05-17T15:33:44Z</time>
      </trkpt>
      <trkpt lat="59.9891798" lon="17.7265356">
        <ele>25.6123</ele>
        <time>2012-05-17T15:33:49Z</time>
      </trkpt>
      <trkpt lat="59.9890538" lon="17.7265474">
        <ele>25.1317</ele>
        <time>2012-05-17T15:33:54Z</time>
      </trkpt>
      <trkpt lat="59.9888962" lon="17.7265533">
        <ele>24.651</ele>
        <time>2012-05-17T15:34:00Z</time>
      </trkpt>
      <trkpt lat="59.9887751" lon="17.7265779">
        <ele>25.1317</ele>
        <time>2012-05-17T15:34:05Z</time>
      </trkpt>
      <trkpt lat="59.9886498" lon="17.726589">
        <ele>25.1317</ele>
        <time>2012-05-17T15:34:10Z</time>
      </trkpt>
      <trkpt lat="59.988522" lon="17.7265844">
        <ele>24.651</ele>
        <time>2012-05-17T15:34:15Z</time>
      </trkpt>
      <trkpt lat="59.9884027" lon="17.7265899">
        <ele>24.1703</ele>
        <time>2012-05-17T15:34:20Z</time>
      </trkpt>
      <trkpt lat="59.9882784" lon="17.7266061">
        <ele>24.651</ele>
        <time>2012-05-17T15:34:25Z</time>
      </trkpt>
      <trkpt lat="59.9881042" lon="17.7266228">
        <ele>27.0543</ele>
        <time>2012-05-17T15:34:32Z</time>
      </trkpt>
      <trkpt lat="59.9879549" lon="17.7266398">
        <ele>27.0543</ele>
        <time>2012-05-17T15:34:38Z</time>
      </trkpt>
      <trkpt lat="59.9878334" lon="17.7266541">
        <ele>27.5349</ele>
        <time>2012-05-17T15:34:43Z</time>
      </trkpt>
      <trkpt lat="59.9876862" lon="17.7266678">
        <ele>28.9769</ele>
        <time>2012-05-17T15:34:49Z</time>
      </trkpt>
      <trkpt lat="59.98754" lon="17.7266719">
        <ele>28.9769</ele>
        <time>2012-05-17T15:34:55Z</time>
      </trkpt>
      <trkpt lat="59.9874258" lon="17.7266728">
        <ele>28.9769</ele>
        <time>2012-05-17T15:35:00Z</time>
      </trkpt>
      <trkpt lat="59.9872831" lon="17.7266889">
        <ele>28.4962</ele>
        <time>2012-05-17T15:35:06Z</time>
      </trkpt>
      <trkpt lat="59.987118" lon="17.7266965">
        <ele>28.9769</ele>
        <time>2012-05-17T15:35:13Z</time>
      </trkpt>
      <trkpt lat="59.9869953" lon="17.7266917">
        <ele>28.9769</ele>
        <time>2012-05-17T15:35:18Z</time>
      </trkpt>
      <trkpt lat="59.9868762" lon="17.7266874">
        <ele>28.9769</ele>
        <time>2012-05-17T15:35:23Z</time>
      </trkpt>
      <trkpt lat="59.9867341" lon="17.7266634">
        <ele>28.4962</ele>
        <time>2012-05-17T15:35:29Z</time>
      </trkpt>
      <trkpt lat="59.9865881" lon="17.7266532">
        <ele>28.0155</ele>
        <time>2012-05-17T15:35:35Z</time>
      </trkpt>
      <trkpt lat="59.9864667" lon="17.7266432">
        <ele>27.5349</ele>
        <time>2012-05-17T15:35:40Z</time>
      </trkpt>
      <trkpt lat="59.9863519" lon="17.7266491">
        <ele>28.0155</ele>
        <time>2012-05-17T15:35:45Z</time>
      </trkpt>
      <trkpt lat="59.9861959" lon="17.7266492">
        <ele>29.4575</ele>
        <time>2012-05-17T15:35:51Z</time>
      </trkpt>
      <trkpt lat="59.9860934" lon="17.7266539">
        <ele>29.4575</ele>
        <time>2012-05-17T15:35:55Z</time>
      </trkpt>
      <trkpt lat="59.9859385" lon="17.7266414">
        <ele>29.4575</ele>
        <time>2012-05-17T15:36:01Z</time>
      </trkpt>
      <trkpt lat="59.9858143" lon="17.7266271">
        <ele>28.4962</ele>
        <time>2012-05-17T15:36:06Z</time>
      </trkpt>
      <trkpt lat="59.985693" lon="17.7266294">
        <ele>27.5349</ele>
        <time>2012-05-17T15:36:11Z</time>
      </trkpt>
      <trkpt lat="59.9855774" lon="17.7266419">
        <ele>27.5349</ele>
        <time>2012-05-17T15:36:16Z</time>
      </trkpt>
      <trkpt lat="59.9854613" lon="17.726668">
        <ele>28.4962</ele>
        <time>2012-05-17T15:36:21Z</time>
      </trkpt>
      <trkpt lat="59.9853489" lon="17.7266755">
        <ele>29.4575</ele>
        <time>2012-05-17T15:36:26Z</time>
      </trkpt>
      <trkpt lat="59.985203" lon="17.7266708">
        <ele>29.9381</ele>
        <time>2012-05-17T15:36:32Z</time>
      </trkpt>
      <trkpt lat="59.985067" lon="17.7266756">
        <ele>31.8607</ele>
        <time>2012-05-17T15:36:38Z</time>
      </trkpt>
      <trkpt lat="59.9849339" lon="17.726689">
        <ele>31.8607</ele>
        <time>2012-05-17T15:36:43Z</time>
      </trkpt>
      <trkpt lat="59.9848076" lon="17.7266869">
        <ele>32.8223</ele>
        <time>2012-05-17T15:36:48Z</time>
      </trkpt>
      <trkpt lat="59.9847114" lon="17.7266844">
        <ele>32.3416</ele>
        <time>2012-05-17T15:36:52Z</time>
      </trkpt>
      <trkpt lat="59.9846207" lon="17.7266888">
        <ele>32.3416</ele>
        <time>2012-05-17T15:36:56Z</time>
      </trkpt>
      <trkpt lat="59.9844807" lon="17.7266853">
        <ele>32.8223</ele>
        <time>2012-05-17T15:37:02Z</time>
      </trkpt>
      <trkpt lat="59.9843669" lon="17.7266718">
        <ele>32.8223</ele>
        <time>2012-05-17T15:37:07Z</time>
      </trkpt>
      <trkpt lat="59.9842559" lon="17.7266723">
        <ele>32.3416</ele>
        <time>2012-05-17T15:37:12Z</time>
      </trkpt>
      <trkpt lat="59.9841442" lon="17.7266686">
        <ele>30.8995</ele>
        <time>2012-05-17T15:37:17Z</time>
      </trkpt>
      <trkpt lat="59.9840219" lon="17.7266505">
        <ele>29.9381</ele>
        <time>2012-05-17T15:37:22Z</time>
      </trkpt>
      <trkpt lat="59.9839053" lon="17.726663">
        <ele>29.9381</ele>
        <time>2012-05-17T15:37:27Z</time>
      </trkpt>
      <trkpt lat="59.9837668" lon="17.726659">
        <ele>28.9769</ele>
        <time>2012-05-17T15:37:33Z</time>
      </trkpt>
      <trkpt lat="59.9836406" lon="17.726672">
        <ele>28.0155</ele>
        <time>2012-05-17T15:37:38Z</time>
      </trkpt>
      <trkpt lat="59.9834923" lon="17.726689">
        <ele>28.9769</ele>
        <time>2012-05-17T15:37:44Z</time>
      </trkpt>
      <trkpt lat="59.983349" lon="17.7266993">
        <ele>28.4962</ele>
        <time>2012-05-17T15:37:50Z</time>
      </trkpt>
      <trkpt lat="59.9832391" lon="17.7267074">
        <ele>28.9769</ele>
        <time>2012-05-17T15:37:55Z</time>
      </trkpt>
      <trkpt lat="59.9830895" lon="17.7267017">
        <ele>29.4575</ele>
        <time>2012-05-17T15:38:01Z</time>
      </trkpt>
      <trkpt lat="59.9829159" lon="17.7267054">
        <ele>29.4575</ele>
        <time>2012-05-17T15:38:08Z</time>
      </trkpt>
      <trkpt lat="59.9827954" lon="17.7267186">
        <ele>29.4575</ele>
        <time>2012-05-17T15:38:13Z</time>
      </trkpt>
      <trkpt lat="59.9826776" lon="17.726722">
        <ele>29.4575</ele>
        <time>2012-05-17T15:38:18Z</time>
      </trkpt>
      <trkpt lat="59.9825635" lon="17.7268034">
        <ele>28.4962</ele>
        <time>2012-05-17T15:38:23Z</time>
      </trkpt>
      <trkpt lat="59.9824687" lon="17.7269158">
        <ele>28.0155</ele>
        <time>2012-05-17T15:38:28Z</time>
      </trkpt>
      <trkpt lat="59.9823587" lon="17.7269968">
        <ele>27.0543</ele>
        <time>2012-05-17T15:38:33Z</time>
      </trkpt>
      <trkpt lat="59.9822819" lon="17.7270743">
        <ele>26.5736</ele>
        <time>2012-05-17T15:38:37Z</time>
      </trkpt>
      <trkpt lat="59.982202" lon="17.727333">
        <ele>25.1317</ele>
        <time>2012-05-17T15:38:44Z</time>
      </trkpt>
      <trkpt lat="59.9821269" lon="17.7275535">
        <ele>26.0929</ele>
        <time>2012-05-17T15:38:50Z</time>
      </trkpt>
      <trkpt lat="59.9820468" lon="17.7277106">
        <ele>26.0929</ele>
        <time>2012-05-17T15:38:55Z</time>
      </trkpt>
      <trkpt lat="59.9819714" lon="17.7278176">
        <ele>26.0929</ele>
        <time>2012-05-17T15:38:59Z</time>
      </trkpt>
      <trkpt lat="59.981867" lon="17.7279712">
        <ele>25.1317</ele>
        <time>2012-05-17T15:39:05Z</time>
      </trkpt>
      <trkpt lat="59.9817748" lon="17.7281258">
        <ele>25.1317</ele>
        <time>2012-05-17T15:39:10Z</time>
      </trkpt>
      <trkpt lat="59.9816754" lon="17.728245">
        <ele>26.0929</ele>
        <time>2012-05-17T15:39:15Z</time>
      </trkpt>
      <trkpt lat="59.9815669" lon="17.7282934">
        <ele>26.0929</ele>
        <time>2012-05-17T15:39:20Z</time>
      </trkpt>
      <trkpt lat="59.9814513" lon="17.7283724">
        <ele>26.5736</ele>
        <time>2012-05-17T15:39:25Z</time>
      </trkpt>
      <trkpt lat="59.9813547" lon="17.7285103">
        <ele>28.0155</ele>
        <time>2012-05-17T15:39:30Z</time>
      </trkpt>
      <trkpt lat="59.9812669" lon="17.728679">
        <ele>28.9769</ele>
        <time>2012-05-17T15:39:35Z</time>
      </trkpt>
      <trkpt lat="59.9811661" lon="17.7288012">
        <ele>28.9769</ele>
        <time>2012-05-17T15:39:40Z</time>
      </trkpt>
      <trkpt lat="59.9810677" lon="17.7288857">
        <ele>28.4962</ele>
        <time>2012-05-17T15:39:45Z</time>
      </trkpt>
      <trkpt lat="59.98093" lon="17.7289625">
        <ele>27.5349</ele>
        <time>2012-05-17T15:39:51Z</time>
      </trkpt>
      <trkpt lat="59.9807958" lon="17.7289562">
        <ele>25.6123</ele>
        <time>2012-05-17T15:39:57Z</time>
      </trkpt>
      <trkpt lat="59.9807062" lon="17.7288502">
        <ele>26.0929</ele>
        <time>2012-05-17T15:40:01Z</time>
      </trkpt>
      <trkpt lat="59.9805935" lon="17.7286629">
        <ele>24.651</ele>
        <time>2012-05-17T15:40:06Z</time>
      </trkpt>
      <trkpt lat="59.9804707" lon="17.7284301">
        <ele>24.651</ele>
        <time>2012-05-17T15:40:12Z</time>
      </trkpt>
      <trkpt lat="59.9803683" lon="17.7282478">
        <ele>25.1317</ele>
        <time>2012-05-17T15:40:17Z</time>
      </trkpt>
      <trkpt lat="59.9802786" lon="17.7280672">
        <ele>26.5736</ele>
        <time>2012-05-17T15:40:22Z</time>
      </trkpt>
      <trkpt lat="59.980172" lon="17.7278466">
        <ele>27.5349</ele>
        <time>2012-05-17T15:40:28Z</time>
      </trkpt>
      <trkpt lat="59.9800735" lon="17.7276771">
        <ele>28.4962</ele>
        <time>2012-05-17T15:40:33Z</time>
      </trkpt>
      <trkpt lat="59.9800361" lon="17.7276044">
        <ele>29.4575</ele>
        <time>2012-05-17T15:40:35Z</time>
      </trkpt>
      <trkpt lat="59.97994" lon="17.727439">
        <ele>30.4188</ele>
        <time>2012-05-17T15:40:40Z</time>
      </trkpt>
      <trkpt lat="59.9799211" lon="17.7274091">
        <ele>30.8995</ele>
        <time>2012-05-17T15:40:41Z</time>
      </trkpt>
      <trkpt lat="59.9798196" lon="17.7272031">
        <ele>31.8607</ele>
        <time>2012-05-17T15:40:47Z</time>
      </trkpt>
      <trkpt lat="59.9796991" lon="17.7269781">
        <ele>32.8223</ele>
        <time>2012-05-17T15:40:54Z</time>
      </trkpt>
      <trkpt lat="59.9796139" lon="17.7267872">
        <ele>32.3416</ele>
        <time>2012-05-17T15:41:00Z</time>
      </trkpt>
      <trkpt lat="59.9795417" lon="17.7266112">
        <ele>32.3416</ele>
        <time>2012-05-17T15:41:05Z</time>
      </trkpt>
      <trkpt lat="59.9794898" lon="17.7264648">
        <ele>30.8995</ele>
        <time>2012-05-17T15:41:09Z</time>
      </trkpt>
      <trkpt lat="59.9793551" lon="17.7264097">
        <ele>29.9381</ele>
        <time>2012-05-17T15:41:15Z</time>
      </trkpt>
      <trkpt lat="59.9792354" lon="17.7263635">
        <ele>29.4575</ele>
        <time>2012-05-17T15:41:20Z</time>
      </trkpt>
      <trkpt lat="59.979107" lon="17.7262951">
        <ele>29.9381</ele>
        <time>2012-05-17T15:41:25Z</time>
      </trkpt>
      <trkpt lat="59.9789507" lon="17.7261932">
        <ele>30.4188</ele>
        <time>2012-05-17T15:41:31Z</time>
      </trkpt>
      <trkpt lat="59.9788683" lon="17.7260529">
        <ele>29.4575</ele>
        <time>2012-05-17T15:41:35Z</time>
      </trkpt>
      <trkpt lat="59.9787704" lon="17.7258823">
        <ele>30.8995</ele>
        <time>2012-05-17T15:41:40Z</time>
      </trkpt>
      <trkpt lat="59.978657" lon="17.7257572">
        <ele>31.3801</ele>
        <time>2012-05-17T15:41:45Z</time>
      </trkpt>
      <trkpt lat="59.9786361" lon="17.7257328">
        <ele>31.3801</ele>
        <time>2012-05-17T15:41:46Z</time>
      </trkpt>
      <trkpt lat="59.9785529" lon="17.7256783">
        <ele>31.3801</ele>
        <time>2012-05-17T15:41:50Z</time>
      </trkpt>
      <trkpt lat="59.9783907" lon="17.7256063">
        <ele>32.3416</ele>
        <time>2012-05-17T15:41:57Z</time>
      </trkpt>
      <trkpt lat="59.9782891" lon="17.7255587">
        <ele>33.3029</ele>
        <time>2012-05-17T15:42:01Z</time>
      </trkpt>
      <trkpt lat="59.9781695" lon="17.7254711">
        <ele>32.8223</ele>
        <time>2012-05-17T15:42:06Z</time>
      </trkpt>
      <trkpt lat="59.9780581" lon="17.7253593">
        <ele>28.9769</ele>
        <time>2012-05-17T15:42:11Z</time>
      </trkpt>
      <trkpt lat="59.9779316" lon="17.7252687">
        <ele>28.0155</ele>
        <time>2012-05-17T15:42:17Z</time>
      </trkpt>
      <trkpt lat="59.9778249" lon="17.7252365">
        <ele>26.0929</ele>
        <time>2012-05-17T15:42:22Z</time>
      </trkpt>
      <trkpt lat="59.9776908" lon="17.7251914">
        <ele>24.651</ele>
        <time>2012-05-17T15:42:28Z</time>
      </trkpt>
      <trkpt lat="59.9775733" lon="17.7251779">
        <ele>23.209</ele>
        <time>2012-05-17T15:42:33Z</time>
      </trkpt>
      <trkpt lat="59.9774564" lon="17.7251479">
        <ele>22.7283</ele>
        <time>2012-05-17T15:42:38Z</time>
      </trkpt>
      <trkpt lat="59.9773456" lon="17.7251171">
        <ele>21.767</ele>
        <time>2012-05-17T15:42:43Z</time>
      </trkpt>
      <trkpt lat="59.9772551" lon="17.7251054">
        <ele>21.767</ele>
        <time>2012-05-17T15:42:47Z</time>
      </trkpt>
      <trkpt lat="59.9771459" lon="17.7250917">
        <ele>22.2476</ele>
        <time>2012-05-17T15:42:52Z</time>
      </trkpt>
      <trkpt lat="59.9770192" lon="17.7251505">
        <ele>22.2476</ele>
        <time>2012-05-17T15:42:58Z</time>
      </trkpt>
      <trkpt lat="59.9769208" lon="17.7252494">
        <ele>21.767</ele>
        <time>2012-05-17T15:43:03Z</time>
      </trkpt>
      <trkpt lat="59.9768029" lon="17.725366">
        <ele>21.2864</ele>
        <time>2012-05-17T15:43:09Z</time>
      </trkpt>
      <trkpt lat="59.9766946" lon="17.7254593">
        <ele>20.325</ele>
        <time>2012-05-17T15:43:14Z</time>
      </trkpt>
      <trkpt lat="59.9765822" lon="17.7255619">
        <ele>19.8444</ele>
        <time>2012-05-17T15:43:20Z</time>
      </trkpt>
      <trkpt lat="59.9764859" lon="17.7256559">
        <ele>19.3638</ele>
        <time>2012-05-17T15:43:25Z</time>
      </trkpt>
      <trkpt lat="59.97637" lon="17.7257699">
        <ele>18.8831</ele>
        <time>2012-05-17T15:43:31Z</time>
      </trkpt>
      <trkpt lat="59.9762612" lon="17.7258867">
        <ele>19.3638</ele>
        <time>2012-05-17T15:43:37Z</time>
      </trkpt>
      <trkpt lat="59.9761534" lon="17.7259891">
        <ele>19.8444</ele>
        <time>2012-05-17T15:43:42Z</time>
      </trkpt>
      <trkpt lat="59.9760169" lon="17.7261249">
        <ele>19.8444</ele>
        <time>2012-05-17T15:43:49Z</time>
      </trkpt>
      <trkpt lat="59.9759035" lon="17.726247">
        <ele>19.8444</ele>
        <time>2012-05-17T15:43:55Z</time>
      </trkpt>
      <trkpt lat="59.9757822" lon="17.7263603">
        <ele>19.3638</ele>
        <time>2012-05-17T15:44:01Z</time>
      </trkpt>
      <trkpt lat="59.9756589" lon="17.7264972">
        <ele>18.8831</ele>
        <time>2012-05-17T15:44:07Z</time>
      </trkpt>
      <trkpt lat="59.9755538" lon="17.726607">
        <ele>18.4023</ele>
        <time>2012-05-17T15:44:12Z</time>
      </trkpt>
      <trkpt lat="59.9754587" lon="17.7267051">
        <ele>19.8444</ele>
        <time>2012-05-17T15:44:17Z</time>
      </trkpt>
      <trkpt lat="59.9753217" lon="17.7268445">
        <ele>19.8444</ele>
        <time>2012-05-17T15:44:23Z</time>
      </trkpt>
      <trkpt lat="59.9752098" lon="17.7269747">
        <ele>20.8057</ele>
        <time>2012-05-17T15:44:28Z</time>
      </trkpt>
      <trkpt lat="59.9751059" lon="17.7270484">
        <ele>20.325</ele>
        <time>2012-05-17T15:44:33Z</time>
      </trkpt>
      <trkpt lat="59.9749992" lon="17.7271246">
        <ele>20.8057</ele>
        <time>2012-05-17T15:44:38Z</time>
      </trkpt>
      <trkpt lat="59.9748646" lon="17.7272104">
        <ele>20.325</ele>
        <time>2012-05-17T15:44:44Z</time>
      </trkpt>
      <trkpt lat="59.9747648" lon="17.7274029">
        <ele>17.9218</ele>
        <time>2012-05-17T15:44:49Z</time>
      </trkpt>
      <trkpt lat="59.974619" lon="17.7275513">
        <ele>16.9604</ele>
        <time>2012-05-17T15:44:54Z</time>
      </trkpt>
      <trkpt lat="59.9744929" lon="17.727655">
        <ele>17.4412</ele>
        <time>2012-05-17T15:44:59Z</time>
      </trkpt>
      <trkpt lat="59.9744522" lon="17.7276919">
        <ele>17.9218</ele>
        <time>2012-05-17T15:45:01Z</time>
      </trkpt>
      <trkpt lat="59.9744252" lon="17.7279426">
        <ele>18.8831</ele>
        <time>2012-05-17T15:45:06Z</time>
      </trkpt>
      <trkpt lat="59.9744127" lon="17.7282403">
        <ele>20.325</ele>
        <time>2012-05-17T15:45:11Z</time>
      </trkpt>
      <trkpt lat="59.9744149" lon="17.7284658">
        <ele>20.8057</ele>
        <time>2012-05-17T15:45:15Z</time>
      </trkpt>
      <trkpt lat="59.974418" lon="17.7286238">
        <ele>20.8057</ele>
        <time>2012-05-17T15:45:18Z</time>
      </trkpt>
      <trkpt lat="59.9744242" lon="17.7290015">
        <ele>20.8057</ele>
        <time>2012-05-17T15:45:25Z</time>
      </trkpt>
      <trkpt lat="59.9744279" lon="17.7290524">
        <ele>21.2864</ele>
        <time>2012-05-17T15:45:26Z</time>
      </trkpt>
      <trkpt lat="59.9744401" lon="17.7293723">
        <ele>21.767</ele>
        <time>2012-05-17T15:45:32Z</time>
      </trkpt>
      <trkpt lat="59.9744407" lon="17.7294739">
        <ele>21.767</ele>
        <time>2012-05-17T15:45:34Z</time>
      </trkpt>
      <trkpt lat="59.9744315" lon="17.7297604">
        <ele>22.2476</ele>
        <time>2012-05-17T15:45:40Z</time>
      </trkpt>
      <trkpt lat="59.9744196" lon="17.729911">
        <ele>22.7283</ele>
        <time>2012-05-17T15:45:43Z</time>
      </trkpt>
      <trkpt lat="59.9744106" lon="17.7302123">
        <ele>24.651</ele>
        <time>2012-05-17T15:45:49Z</time>
      </trkpt>
      <trkpt lat="59.9743969" lon="17.7304517">
        <ele>25.6123</ele>
        <time>2012-05-17T15:45:54Z</time>
      </trkpt>
      <trkpt lat="59.9743994" lon="17.730658">
        <ele>25.6123</ele>
        <time>2012-05-17T15:45:58Z</time>
      </trkpt>
      <trkpt lat="59.9743817" lon="17.7309024">
        <ele>26.0929</ele>
        <time>2012-05-17T15:46:03Z</time>
      </trkpt>
      <trkpt lat="59.9743588" lon="17.731167">
        <ele>27.0543</ele>
        <time>2012-05-17T15:46:08Z</time>
      </trkpt>
      <trkpt lat="59.9743538" lon="17.7314644">
        <ele>28.0155</ele>
        <time>2012-05-17T15:46:14Z</time>
      </trkpt>
      <trkpt lat="59.9743492" lon="17.7317676">
        <ele>28.4962</ele>
        <time>2012-05-17T15:46:20Z</time>
      </trkpt>
      <trkpt lat="59.9743449" lon="17.7321206">
        <ele>28.4962</ele>
        <time>2012-05-17T15:46:27Z</time>
      </trkpt>
      <trkpt lat="59.974352" lon="17.7323704">
        <ele>28.4962</ele>
        <time>2012-05-17T15:46:32Z</time>
      </trkpt>
      <trkpt lat="59.9743538" lon="17.7326948">
        <ele>26.0929</ele>
        <time>2012-05-17T15:46:38Z</time>
      </trkpt>
      <trkpt lat="59.9743588" lon="17.7329355">
        <ele>26.0929</ele>
        <time>2012-05-17T15:46:43Z</time>
      </trkpt>
      <trkpt lat="59.9743579" lon="17.7331994">
        <ele>26.5736</ele>
        <time>2012-05-17T15:46:48Z</time>
      </trkpt>
      <trkpt lat="59.974348" lon="17.7334045">
        <ele>27.5349</ele>
        <time>2012-05-17T15:46:52Z</time>
      </trkpt>
      <trkpt lat="59.974331" lon="17.7336536">
        <ele>27.5349</ele>
        <time>2012-05-17T15:46:57Z</time>
      </trkpt>
      <trkpt lat="59.9743091" lon="17.7339679">
        <ele>28.0155</ele>
        <time>2012-05-17T15:47:03Z</time>
      </trkpt>
      <trkpt lat="59.9742952" lon="17.7341847">
        <ele>27.5349</ele>
        <time>2012-05-17T15:47:07Z</time>
      </trkpt>
      <trkpt lat="59.9742912" lon="17.7344441">
        <ele>28.0155</ele>
        <time>2012-05-17T15:47:12Z</time>
      </trkpt>
      <trkpt lat="59.9742955" lon="17.7347154">
        <ele>27.5349</ele>
        <time>2012-05-17T15:47:17Z</time>
      </trkpt>
      <trkpt lat="59.9742982" lon="17.7347688">
        <ele>28.0155</ele>
        <time>2012-05-17T15:47:18Z</time>
      </trkpt>
    </trkseg>
  </trk>
</gpx>